sensor_id;sensor_type;location;lat;lon;timestamp;P1;durP1;ratioP1;P2;durP2;ratioP2
62693;SDS011;48759;52.544;13.418;2022-09-09T00:00:12;14.43;;;12.03;;
62693;SDS011;48759;52.544;13.418;2022-09-09T00:02:40;13.10;;;11.67;;
62693;SDS011;48759;52.544;13.418;2022-09-09T00:05:14;12.63;;;11.30;;
62693;SDS011;48759;52.544;13.418;2022-09-09T00:07:48;13.17;;;11.63;;
62693;SDS011;48759;52.544;13.418;2022-09-09T00:10:19;13.00;;;11.40;;
62693;SDS011;48759;52.544;13.418;2022-09-09T00:12:57;15.90;;;12.13;;
62693;SDS011;48759;52.544;13.418;2022-09-09T00:15:33;13.17;;;11.67;;
62693;SDS011;48759;52.544;13.418;2022-09-09T00:18:08;13.27;;;11.50;;
62693;SDS011;48759;52.544;13.418;2022-09-09T00:20:44;15.07;;;11.30;;
62693;SDS011;48759;52.544;13.418;2022-09-09T00:23:18;17.37;;;12.10;;
62693;SDS011;48759;52.544;13.418;2022-09-09T00:25:52;16.73;;;10.30;;
62693;SDS011;48759;52.544;13.418;2022-09-09T00:28:27;12.10;;;10.40;;
62693;SDS011;48759;52.544;13.418;2022-09-09T00:30:55;12.17;;;10.83;;
62693;SDS011;48759;52.544;13.418;2022-09-09T00:33:26;17.50;;;12.10;;
62693;SDS011;48759;52.544;13.418;2022-09-09T00:35:54;16.00;;;12.17;;
62693;SDS011;48759;52.544;13.418;2022-09-09T00:38:24;14.37;;;12.00;;
62693;SDS011;48759;52.544;13.418;2022-09-09T00:40:55;16.30;;;12.30;;
62693;SDS011;48759;52.544;13.418;2022-09-09T00:43:29;13.50;;;11.77;;
62693;SDS011;48759;52.544;13.418;2022-09-09T00:46:06;19.07;;;13.10;;
62693;SDS011;48759;52.544;13.418;2022-09-09T00:48:48;14.47;;;11.67;;
62693;SDS011;48759;52.544;13.418;2022-09-09T00:51:22;14.30;;;11.83;;
62693;SDS011;48759;52.544;13.418;2022-09-09T00:54:09;16.70;;;12.63;;
62693;SDS011;48759;52.544;13.418;2022-09-09T00:56:52;16.53;;;12.70;;
62693;SDS011;48759;52.544;13.418;2022-09-09T00:59:31;16.13;;;11.80;;
62693;SDS011;48759;52.544;13.418;2022-09-09T01:02:07;16.33;;;11.70;;
62693;SDS011;48759;52.544;13.418;2022-09-09T01:04:41;14.53;;;12.00;;
62693;SDS011;48759;52.544;13.418;2022-09-09T01:07:11;15.77;;;12.33;;
62693;SDS011;48759;52.544;13.418;2022-09-09T01:09:45;13.97;;;12.47;;
62693;SDS011;48759;52.544;13.418;2022-09-09T01:12:23;14.00;;;12.20;;
62693;SDS011;48759;52.544;13.418;2022-09-09T01:14:53;13.20;;;11.27;;
62693;SDS011;48759;52.544;13.418;2022-09-09T01:17:28;16.33;;;13.80;;
62693;SDS011;48759;52.544;13.418;2022-09-09T01:20:03;16.93;;;13.43;;
62693;SDS011;48759;52.544;13.418;2022-09-09T01:22:34;17.30;;;13.43;;
62693;SDS011;48759;52.544;13.418;2022-09-09T01:25:18;16.93;;;13.53;;
62693;SDS011;48759;52.544;13.418;2022-09-09T01:27:52;15.13;;;12.00;;
62693;SDS011;48759;52.544;13.418;2022-09-09T01:30:22;14.70;;;12.90;;
62693;SDS011;48759;52.544;13.418;2022-09-09T01:32:50;17.07;;;14.50;;
62693;SDS011;48759;52.544;13.418;2022-09-09T01:35:21;18.60;;;14.20;;
62693;SDS011;48759;52.544;13.418;2022-09-09T01:37:57;16.60;;;13.83;;
62693;SDS011;48759;52.544;13.418;2022-09-09T01:40:24;17.57;;;13.93;;
62693;SDS011;48759;52.544;13.418;2022-09-09T01:42:53;16.80;;;13.07;;
62693;SDS011;48759;52.544;13.418;2022-09-09T01:45:20;20.00;;;14.73;;
62693;SDS011;48759;52.544;13.418;2022-09-09T01:47:48;15.90;;;13.67;;
62693;SDS011;48759;52.544;13.418;2022-09-09T01:50:15;20.07;;;15.23;;
62693;SDS011;48759;52.544;13.418;2022-09-09T01:52:43;20.70;;;14.57;;
62693;SDS011;48759;52.544;13.418;2022-09-09T01:55:11;20.77;;;13.80;;
62693;SDS011;48759;52.544;13.418;2022-09-09T01:57:39;20.87;;;14.47;;
62693;SDS011;48759;52.544;13.418;2022-09-09T02:00:14;17.37;;;12.87;;
62693;SDS011;48759;52.544;13.418;2022-09-09T02:02:43;18.03;;;14.40;;
62693;SDS011;48759;52.544;13.418;2022-09-09T02:05:24;19.20;;;13.13;;
62693;SDS011;48759;52.544;13.418;2022-09-09T02:08:03;15.03;;;12.40;;
62693;SDS011;48759;52.544;13.418;2022-09-09T02:10:33;20.50;;;14.13;;
62693;SDS011;48759;52.544;13.418;2022-09-09T02:13:07;14.10;;;12.30;;
62693;SDS011;48759;52.544;13.418;2022-09-09T02:15:39;16.60;;;14.10;;
62693;SDS011;48759;52.544;13.418;2022-09-09T02:18:10;18.97;;;13.40;;
62693;SDS011;48759;52.544;13.418;2022-09-09T02:20:40;17.97;;;13.00;;
62693;SDS011;48759;52.544;13.418;2022-09-09T02:23:09;16.67;;;13.53;;
62693;SDS011;48759;52.544;13.418;2022-09-09T02:25:37;16.20;;;12.93;;
62693;SDS011;48759;52.544;13.418;2022-09-09T02:28:06;16.07;;;12.80;;
62693;SDS011;48759;52.544;13.418;2022-09-09T02:30:35;17.80;;;13.30;;
62693;SDS011;48759;52.544;13.418;2022-09-09T02:33:06;17.00;;;12.80;;
62693;SDS011;48759;52.544;13.418;2022-09-09T02:35:35;14.77;;;11.80;;
62693;SDS011;48759;52.544;13.418;2022-09-09T02:38:04;14.87;;;11.77;;
62693;SDS011;48759;52.544;13.418;2022-09-09T02:40:33;14.67;;;12.40;;
62693;SDS011;48759;52.544;13.418;2022-09-09T02:43:00;16.90;;;12.80;;
62693;SDS011;48759;52.544;13.418;2022-09-09T02:45:29;18.13;;;12.87;;
62693;SDS011;48759;52.544;13.418;2022-09-09T02:48:03;17.60;;;12.50;;
62693;SDS011;48759;52.544;13.418;2022-09-09T02:50:39;15.37;;;12.53;;
62693;SDS011;48759;52.544;13.418;2022-09-09T02:53:16;16.83;;;13.30;;
62693;SDS011;48759;52.544;13.418;2022-09-09T02:55:46;13.70;;;11.63;;
62693;SDS011;48759;52.544;13.418;2022-09-09T02:58:14;16.93;;;12.90;;
62693;SDS011;48759;52.544;13.418;2022-09-09T03:00:43;16.03;;;11.97;;
62693;SDS011;48759;52.544;13.418;2022-09-09T03:03:11;15.17;;;12.47;;
62693;SDS011;48759;52.544;13.418;2022-09-09T03:05:38;17.90;;;12.33;;
62693;SDS011;48759;52.544;13.418;2022-09-09T03:08:05;15.00;;;11.60;;
62693;SDS011;48759;52.544;13.418;2022-09-09T03:10:32;13.27;;;11.47;;
62693;SDS011;48759;52.544;13.418;2022-09-09T03:12:59;19.70;;;12.67;;
62693;SDS011;48759;52.544;13.418;2022-09-09T03:15:26;13.07;;;11.20;;
62693;SDS011;48759;52.544;13.418;2022-09-09T03:17:56;14.40;;;10.83;;
62693;SDS011;48759;52.544;13.418;2022-09-09T03:20:24;16.97;;;11.60;;
62693;SDS011;48759;52.544;13.418;2022-09-09T03:22:51;16.17;;;11.57;;
62693;SDS011;48759;52.544;13.418;2022-09-09T03:25:18;14.10;;;11.57;;
62693;SDS011;48759;52.544;13.418;2022-09-09T03:27:44;14.17;;;11.17;;
62693;SDS011;48759;52.544;13.418;2022-09-09T03:30:11;13.33;;;11.43;;
62693;SDS011;48759;52.544;13.418;2022-09-09T03:32:38;15.33;;;11.50;;
62693;SDS011;48759;52.544;13.418;2022-09-09T03:35:05;14.37;;;10.87;;
62693;SDS011;48759;52.544;13.418;2022-09-09T03:37:33;14.97;;;12.13;;
62693;SDS011;48759;52.544;13.418;2022-09-09T03:40:00;13.13;;;11.20;;
62693;SDS011;48759;52.544;13.418;2022-09-09T03:42:27;17.33;;;12.20;;
62693;SDS011;48759;52.544;13.418;2022-09-09T03:44:53;13.60;;;10.27;;
62693;SDS011;48759;52.544;13.418;2022-09-09T03:47:20;13.53;;;11.63;;
62693;SDS011;48759;52.544;13.418;2022-09-09T03:49:47;13.73;;;10.97;;
62693;SDS011;48759;52.544;13.418;2022-09-09T03:52:14;13.50;;;11.23;;
62693;SDS011;48759;52.544;13.418;2022-09-09T03:54:42;13.33;;;11.37;;
62693;SDS011;48759;52.544;13.418;2022-09-09T03:57:09;17.00;;;11.73;;
62693;SDS011;48759;52.544;13.418;2022-09-09T03:59:36;12.53;;;11.23;;
62693;SDS011;48759;52.544;13.418;2022-09-09T04:02:03;17.57;;;11.00;;
62693;SDS011;48759;52.544;13.418;2022-09-09T04:04:30;15.93;;;12.27;;
62693;SDS011;48759;52.544;13.418;2022-09-09T04:06:57;14.40;;;10.53;;
62693;SDS011;48759;52.544;13.418;2022-09-09T04:09:23;14.17;;;11.27;;
62693;SDS011;48759;52.544;13.418;2022-09-09T04:11:51;13.27;;;10.73;;
62693;SDS011;48759;52.544;13.418;2022-09-09T04:14:18;13.80;;;10.47;;
62693;SDS011;48759;52.544;13.418;2022-09-09T04:16:46;10.20;;;9.17;;
62693;SDS011;48759;52.544;13.418;2022-09-09T04:19:13;13.83;;;11.43;;
62693;SDS011;48759;52.544;13.418;2022-09-09T04:21:40;12.40;;;10.37;;
62693;SDS011;48759;52.544;13.418;2022-09-09T04:24:07;16.33;;;9.50;;
62693;SDS011;48759;52.544;13.418;2022-09-09T04:26:34;16.73;;;9.30;;
62693;SDS011;48759;52.544;13.418;2022-09-09T04:29:03;12.93;;;9.90;;
62693;SDS011;48759;52.544;13.418;2022-09-09T04:31:30;11.20;;;9.90;;
62693;SDS011;48759;52.544;13.418;2022-09-09T04:33:56;13.97;;;8.90;;
62693;SDS011;48759;52.544;13.418;2022-09-09T04:36:23;14.90;;;9.13;;
62693;SDS011;48759;52.544;13.418;2022-09-09T04:38:49;13.20;;;8.80;;
62693;SDS011;48759;52.544;13.418;2022-09-09T04:41:16;11.37;;;8.80;;
62693;SDS011;48759;52.544;13.418;2022-09-09T04:43:43;14.40;;;8.53;;
62693;SDS011;48759;52.544;13.418;2022-09-09T04:46:11;11.83;;;8.87;;
62693;SDS011;48759;52.544;13.418;2022-09-09T04:48:37;12.40;;;8.43;;
62693;SDS011;48759;52.544;13.418;2022-09-09T04:51:05;13.27;;;8.17;;
62693;SDS011;48759;52.544;13.418;2022-09-09T04:53:34;11.40;;;8.30;;
62693;SDS011;48759;52.544;13.418;2022-09-09T04:56:01;10.83;;;7.80;;
62693;SDS011;48759;52.544;13.418;2022-09-09T04:58:29;9.83;;;7.80;;
62693;SDS011;48759;52.544;13.418;2022-09-09T05:01:02;10.37;;;8.13;;
62693;SDS011;48759;52.544;13.418;2022-09-09T05:03:30;13.10;;;7.80;;
62693;SDS011;48759;52.544;13.418;2022-09-09T05:06:01;10.53;;;7.90;;
62693;SDS011;48759;52.544;13.418;2022-09-09T05:08:29;9.23;;;8.10;;
62693;SDS011;48759;52.544;13.418;2022-09-09T05:10:55;8.40;;;7.00;;
62693;SDS011;48759;52.544;13.418;2022-09-09T05:13:22;9.57;;;6.90;;
62693;SDS011;48759;52.544;13.418;2022-09-09T05:15:51;12.63;;;7.90;;
62693;SDS011;48759;52.544;13.418;2022-09-09T05:18:17;8.80;;;7.37;;
62693;SDS011;48759;52.544;13.418;2022-09-09T05:20:45;8.10;;;7.30;;
62693;SDS011;48759;52.544;13.418;2022-09-09T05:23:12;12.23;;;8.10;;
62693;SDS011;48759;52.544;13.418;2022-09-09T05:25:38;12.37;;;7.97;;
62693;SDS011;48759;52.544;13.418;2022-09-09T05:28:05;8.20;;;6.73;;
62693;SDS011;48759;52.544;13.418;2022-09-09T05:30:32;11.77;;;7.00;;
62693;SDS011;48759;52.544;13.418;2022-09-09T05:32:59;8.30;;;6.93;;
62693;SDS011;48759;52.544;13.418;2022-09-09T05:35:26;7.93;;;6.43;;
62693;SDS011;48759;52.544;13.418;2022-09-09T05:37:54;16.33;;;7.30;;
62693;SDS011;48759;52.544;13.418;2022-09-09T05:40:25;11.57;;;6.90;;
62693;SDS011;48759;52.544;13.418;2022-09-09T05:42:51;9.30;;;7.00;;
62693;SDS011;48759;52.544;13.418;2022-09-09T05:45:18;7.67;;;6.80;;
62693;SDS011;48759;52.544;13.418;2022-09-09T05:47:45;7.50;;;6.70;;
62693;SDS011;48759;52.544;13.418;2022-09-09T05:50:18;14.83;;;7.50;;
62693;SDS011;48759;52.544;13.418;2022-09-09T05:52:44;7.37;;;6.67;;
62693;SDS011;48759;52.544;13.418;2022-09-09T05:55:12;8.13;;;6.83;;
62693;SDS011;48759;52.544;13.418;2022-09-09T05:57:39;10.03;;;7.50;;
62693;SDS011;48759;52.544;13.418;2022-09-09T06:00:05;7.97;;;6.90;;
62693;SDS011;48759;52.544;13.418;2022-09-09T06:02:33;9.40;;;6.43;;
62693;SDS011;48759;52.544;13.418;2022-09-09T06:05:02;14.70;;;7.10;;
62693;SDS011;48759;52.544;13.418;2022-09-09T06:07:28;8.90;;;6.70;;
62693;SDS011;48759;52.544;13.418;2022-09-09T06:09:55;8.00;;;6.40;;
62693;SDS011;48759;52.544;13.418;2022-09-09T06:12:22;8.27;;;6.57;;
62693;SDS011;48759;52.544;13.418;2022-09-09T06:14:49;12.57;;;6.63;;
62693;SDS011;48759;52.544;13.418;2022-09-09T06:17:16;10.90;;;5.70;;
62693;SDS011;48759;52.544;13.418;2022-09-09T06:19:43;11.23;;;5.87;;
62693;SDS011;48759;52.544;13.418;2022-09-09T06:22:09;8.13;;;6.10;;
62693;SDS011;48759;52.544;13.418;2022-09-09T06:24:37;6.80;;;6.00;;
62693;SDS011;48759;52.544;13.418;2022-09-09T06:27:03;8.40;;;6.33;;
62693;SDS011;48759;52.544;13.418;2022-09-09T06:29:33;9.80;;;6.20;;
62693;SDS011;48759;52.544;13.418;2022-09-09T06:31:59;9.03;;;6.03;;
62693;SDS011;48759;52.544;13.418;2022-09-09T06:34:26;7.33;;;5.80;;
62693;SDS011;48759;52.544;13.418;2022-09-09T06:36:53;7.43;;;5.80;;
62693;SDS011;48759;52.544;13.418;2022-09-09T06:39:20;8.93;;;5.37;;
62693;SDS011;48759;52.544;13.418;2022-09-09T06:41:47;7.73;;;6.40;;
62693;SDS011;48759;52.544;13.418;2022-09-09T06:44:14;12.53;;;6.00;;
62693;SDS011;48759;52.544;13.418;2022-09-09T06:46:42;7.60;;;5.03;;
62693;SDS011;48759;52.544;13.418;2022-09-09T06:49:09;7.20;;;5.43;;
62693;SDS011;48759;52.544;13.418;2022-09-09T06:51:36;6.40;;;5.20;;
62693;SDS011;48759;52.544;13.418;2022-09-09T06:54:07;8.87;;;5.20;;
62693;SDS011;48759;52.544;13.418;2022-09-09T06:56:34;5.93;;;5.07;;
62693;SDS011;48759;52.544;13.418;2022-09-09T06:59:03;8.30;;;5.20;;
62693;SDS011;48759;52.544;13.418;2022-09-09T07:01:31;9.77;;;5.63;;
62693;SDS011;48759;52.544;13.418;2022-09-09T07:04:00;8.63;;;4.63;;
62693;SDS011;48759;52.544;13.418;2022-09-09T07:06:27;9.03;;;4.93;;
62693;SDS011;48759;52.544;13.418;2022-09-09T07:08:56;9.57;;;4.70;;
62693;SDS011;48759;52.544;13.418;2022-09-09T07:11:24;8.00;;;4.33;;
62693;SDS011;48759;52.544;13.418;2022-09-09T07:13:54;8.03;;;4.63;;
62693;SDS011;48759;52.544;13.418;2022-09-09T07:16:23;7.83;;;4.40;;
62693;SDS011;48759;52.544;13.418;2022-09-09T07:18:50;6.43;;;4.80;;
62693;SDS011;48759;52.544;13.418;2022-09-09T07:21:18;9.43;;;4.00;;
62693;SDS011;48759;52.544;13.418;2022-09-09T07:23:46;7.10;;;4.10;;
62693;SDS011;48759;52.544;13.418;2022-09-09T07:26:14;5.23;;;3.33;;
62693;SDS011;48759;52.544;13.418;2022-09-09T07:28:42;4.80;;;3.20;;
62693;SDS011;48759;52.544;13.418;2022-09-09T07:31:12;11.03;;;4.03;;
62693;SDS011;48759;52.544;13.418;2022-09-09T07:33:40;8.57;;;4.00;;
62693;SDS011;48759;52.544;13.418;2022-09-09T07:36:08;6.73;;;3.63;;
62693;SDS011;48759;52.544;13.418;2022-09-09T07:38:39;10.93;;;3.77;;
62693;SDS011;48759;52.544;13.418;2022-09-09T07:41:09;4.13;;;3.57;;
62693;SDS011;48759;52.544;13.418;2022-09-09T07:43:37;5.23;;;3.47;;
62693;SDS011;48759;52.544;13.418;2022-09-09T07:46:05;10.73;;;3.70;;
62693;SDS011;48759;52.544;13.418;2022-09-09T07:48:32;6.33;;;3.20;;
62693;SDS011;48759;52.544;13.418;2022-09-09T07:51:09;5.90;;;4.27;;
62693;SDS011;48759;52.544;13.418;2022-09-09T07:53:37;12.63;;;3.63;;
62693;SDS011;48759;52.544;13.418;2022-09-09T07:56:07;8.93;;;2.57;;
62693;SDS011;48759;52.544;13.418;2022-09-09T07:58:35;9.40;;;3.53;;
62693;SDS011;48759;52.544;13.418;2022-09-09T08:01:06;11.97;;;3.20;;
62693;SDS011;48759;52.544;13.418;2022-09-09T08:03:33;3.97;;;2.70;;
62693;SDS011;48759;52.544;13.418;2022-09-09T08:06:00;9.53;;;4.13;;
62693;SDS011;48759;52.544;13.418;2022-09-09T08:08:28;9.20;;;3.70;;
62693;SDS011;48759;52.544;13.418;2022-09-09T08:11:00;10.57;;;3.53;;
62693;SDS011;48759;52.544;13.418;2022-09-09T08:13:29;12.33;;;3.10;;
62693;SDS011;48759;52.544;13.418;2022-09-09T08:16:02;5.50;;;3.03;;
62693;SDS011;48759;52.544;13.418;2022-09-09T08:18:30;6.33;;;2.90;;
62693;SDS011;48759;52.544;13.418;2022-09-09T08:20:56;8.60;;;3.00;;
62693;SDS011;48759;52.544;13.418;2022-09-09T08:23:23;6.77;;;2.90;;
62693;SDS011;48759;52.544;13.418;2022-09-09T08:25:50;8.53;;;3.00;;
62693;SDS011;48759;52.544;13.418;2022-09-09T08:28:17;6.47;;;2.80;;
62693;SDS011;48759;52.544;13.418;2022-09-09T08:30:45;4.80;;;2.83;;
62693;SDS011;48759;52.544;13.418;2022-09-09T08:33:13;4.10;;;2.80;;
62693;SDS011;48759;52.544;13.418;2022-09-09T08:35:39;6.90;;;2.90;;
62693;SDS011;48759;52.544;13.418;2022-09-09T08:38:06;14.30;;;3.13;;
62693;SDS011;48759;52.544;13.418;2022-09-09T08:40:33;5.57;;;2.97;;
62693;SDS011;48759;52.544;13.418;2022-09-09T08:43:06;7.93;;;2.60;;
62693;SDS011;48759;52.544;13.418;2022-09-09T08:45:34;5.43;;;3.10;;
62693;SDS011;48759;52.544;13.418;2022-09-09T08:48:10;8.97;;;2.90;;
62693;SDS011;48759;52.544;13.418;2022-09-09T08:50:49;5.57;;;3.13;;
62693;SDS011;48759;52.544;13.418;2022-09-09T08:53:19;9.53;;;2.97;;
62693;SDS011;48759;52.544;13.418;2022-09-09T08:55:50;9.37;;;2.80;;
62693;SDS011;48759;52.544;13.418;2022-09-09T08:58:18;10.67;;;2.90;;
62693;SDS011;48759;52.544;13.418;2022-09-09T09:00:59;9.13;;;3.40;;
62693;SDS011;48759;52.544;13.418;2022-09-09T09:03:40;5.27;;;3.40;;
62693;SDS011;48759;52.544;13.418;2022-09-09T09:06:19;5.40;;;2.70;;
62693;SDS011;48759;52.544;13.418;2022-09-09T09:09:01;3.33;;;2.93;;
62693;SDS011;48759;52.544;13.418;2022-09-09T09:11:35;9.63;;;3.30;;
62693;SDS011;48759;52.544;13.418;2022-09-09T09:14:05;9.60;;;3.20;;
62693;SDS011;48759;52.544;13.418;2022-09-09T09:16:39;8.87;;;2.97;;
62693;SDS011;48759;52.544;13.418;2022-09-09T09:19:11;7.13;;;2.87;;
62693;SDS011;48759;52.544;13.418;2022-09-09T09:21:41;5.77;;;2.40;;
62693;SDS011;48759;52.544;13.418;2022-09-09T09:24:13;8.93;;;2.63;;
62693;SDS011;48759;52.544;13.418;2022-09-09T09:26:44;5.70;;;2.40;;
62693;SDS011;48759;52.544;13.418;2022-09-09T09:29:12;5.33;;;2.57;;
62693;SDS011;48759;52.544;13.418;2022-09-09T09:31:41;10.40;;;2.97;;
62693;SDS011;48759;52.544;13.418;2022-09-09T09:34:12;5.67;;;2.50;;
62693;SDS011;48759;52.544;13.418;2022-09-09T09:36:39;8.57;;;2.50;;
62693;SDS011;48759;52.544;13.418;2022-09-09T09:39:09;8.40;;;2.90;;
62693;SDS011;48759;52.544;13.418;2022-09-09T09:41:36;5.87;;;2.43;;
62693;SDS011;48759;52.544;13.418;2022-09-09T09:44:06;4.20;;;2.47;;
62693;SDS011;48759;52.544;13.418;2022-09-09T09:46:48;3.83;;;2.57;;
62693;SDS011;48759;52.544;13.418;2022-09-09T09:49:16;6.90;;;2.63;;
62693;SDS011;48759;52.544;13.418;2022-09-09T09:51:43;5.70;;;2.80;;
62693;SDS011;48759;52.544;13.418;2022-09-09T09:54:14;7.30;;;2.50;;
62693;SDS011;48759;52.544;13.418;2022-09-09T09:56:47;10.83;;;2.53;;
62693;SDS011;48759;52.544;13.418;2022-09-09T09:59:22;7.70;;;2.77;;
62693;SDS011;48759;52.544;13.418;2022-09-09T10:02:05;7.23;;;2.30;;
62693;SDS011;48759;52.544;13.418;2022-09-09T10:04:41;8.43;;;2.70;;
62693;SDS011;48759;52.544;13.418;2022-09-09T10:07:09;8.73;;;2.67;;
62693;SDS011;48759;52.544;13.418;2022-09-09T10:09:36;7.40;;;2.43;;
62693;SDS011;48759;52.544;13.418;2022-09-09T10:12:04;7.40;;;2.90;;
62693;SDS011;48759;52.544;13.418;2022-09-09T10:14:42;6.70;;;2.30;;
62693;SDS011;48759;52.544;13.418;2022-09-09T10:17:18;5.87;;;2.83;;
62693;SDS011;48759;52.544;13.418;2022-09-09T10:19:56;2.93;;;1.90;;
62693;SDS011;48759;52.544;13.418;2022-09-09T10:22:45;8.37;;;2.37;;
62693;SDS011;48759;52.544;13.418;2022-09-09T10:25:22;5.63;;;2.23;;
62693;SDS011;48759;52.544;13.418;2022-09-09T10:30:58;6.13;;;2.20;;
62693;SDS011;48759;52.544;13.418;2022-09-09T10:33:36;5.20;;;2.53;;
62693;SDS011;48759;52.544;13.418;2022-09-09T10:36:12;6.03;;;2.57;;
62693;SDS011;48759;52.544;13.418;2022-09-09T10:38:40;4.23;;;2.97;;
62693;SDS011;48759;52.544;13.418;2022-09-09T10:41:14;5.83;;;2.67;;
62693;SDS011;48759;52.544;13.418;2022-09-09T10:43:54;3.80;;;2.57;;
62693;SDS011;48759;52.544;13.418;2022-09-09T10:46:34;5.20;;;2.40;;
62693;SDS011;48759;52.544;13.418;2022-09-09T10:49:10;6.20;;;2.43;;
62693;SDS011;48759;52.544;13.418;2022-09-09T10:51:50;5.87;;;2.33;;
62693;SDS011;48759;52.544;13.418;2022-09-09T10:54:32;5.90;;;2.27;;
62693;SDS011;48759;52.544;13.418;2022-09-09T10:57:11;2.80;;;1.90;;
62693;SDS011;48759;52.544;13.418;2022-09-09T10:59:42;6.23;;;2.50;;
62693;SDS011;48759;52.544;13.418;2022-09-09T11:02:14;5.97;;;2.33;;
62693;SDS011;48759;52.544;13.418;2022-09-09T11:04:45;4.63;;;2.33;;
62693;SDS011;48759;52.544;13.418;2022-09-09T11:07:19;9.60;;;3.50;;
62693;SDS011;48759;52.544;13.418;2022-09-09T11:09:54;10.00;;;2.93;;
62693;SDS011;48759;52.544;13.418;2022-09-09T11:12:26;6.07;;;2.53;;
62693;SDS011;48759;52.544;13.418;2022-09-09T11:14:57;5.73;;;2.60;;
62693;SDS011;48759;52.544;13.418;2022-09-09T11:17:33;7.27;;;2.20;;
62693;SDS011;48759;52.544;13.418;2022-09-09T11:20:06;2.43;;;2.03;;
62693;SDS011;48759;52.544;13.418;2022-09-09T11:22:39;8.33;;;2.63;;
62693;SDS011;48759;52.544;13.418;2022-09-09T11:25:14;4.40;;;2.83;;
62693;SDS011;48759;52.544;13.418;2022-09-09T11:27:46;8.80;;;3.00;;
62693;SDS011;48759;52.544;13.418;2022-09-09T11:30:22;6.40;;;2.80;;
62693;SDS011;48759;52.544;13.418;2022-09-09T11:33:00;9.33;;;3.50;;
62693;SDS011;48759;52.544;13.418;2022-09-09T11:35:42;11.63;;;2.47;;
62693;SDS011;48759;52.544;13.418;2022-09-09T11:38:19;5.80;;;2.50;;
62693;SDS011;48759;52.544;13.418;2022-09-09T11:40:55;4.87;;;2.60;;
62693;SDS011;48759;52.544;13.418;2022-09-09T11:43:26;10.40;;;2.30;;
62693;SDS011;48759;52.544;13.418;2022-09-09T11:45:57;3.03;;;2.30;;
62693;SDS011;48759;52.544;13.418;2022-09-09T11:48:26;4.63;;;2.30;;
62693;SDS011;48759;52.544;13.418;2022-09-09T11:50:57;9.07;;;2.33;;
62693;SDS011;48759;52.544;13.418;2022-09-09T11:53:26;4.13;;;2.07;;
62693;SDS011;48759;52.544;13.418;2022-09-09T11:56:00;5.30;;;2.57;;
62693;SDS011;48759;52.544;13.418;2022-09-09T11:58:33;5.73;;;2.23;;
62693;SDS011;48759;52.544;13.418;2022-09-09T12:01:12;3.67;;;2.40;;
62693;SDS011;48759;52.544;13.418;2022-09-09T12:03:55;6.50;;;2.20;;
62693;SDS011;48759;52.544;13.418;2022-09-09T12:06:31;10.70;;;2.33;;
62693;SDS011;48759;52.544;13.418;2022-09-09T12:09:06;8.50;;;1.80;;
62693;SDS011;48759;52.544;13.418;2022-09-09T12:11:39;4.17;;;1.80;;
62693;SDS011;48759;52.544;13.418;2022-09-09T12:14:18;5.10;;;2.10;;
62693;SDS011;48759;52.544;13.418;2022-09-09T12:16:46;6.40;;;3.40;;
62693;SDS011;48759;52.544;13.418;2022-09-09T12:19:14;6.27;;;2.50;;
62693;SDS011;48759;52.544;13.418;2022-09-09T12:21:44;6.40;;;2.27;;
62693;SDS011;48759;52.544;13.418;2022-09-09T12:24:19;3.17;;;1.47;;
62693;SDS011;48759;52.544;13.418;2022-09-09T12:26:58;4.00;;;2.10;;
62693;SDS011;48759;52.544;13.418;2022-09-09T12:29:32;6.53;;;1.73;;
62693;SDS011;48759;52.544;13.418;2022-09-09T12:32:10;4.97;;;1.90;;
62693;SDS011;48759;52.544;13.418;2022-09-09T12:34:38;4.90;;;1.93;;
62693;SDS011;48759;52.544;13.418;2022-09-09T12:37:08;3.77;;;1.80;;
62693;SDS011;48759;52.544;13.418;2022-09-09T12:39:47;3.20;;;1.67;;
62693;SDS011;48759;52.544;13.418;2022-09-09T12:42:18;3.87;;;2.00;;
62693;SDS011;48759;52.544;13.418;2022-09-09T12:44:53;3.37;;;1.70;;
62693;SDS011;48759;52.544;13.418;2022-09-09T12:47:21;6.83;;;2.33;;
62693;SDS011;48759;52.544;13.418;2022-09-09T12:49:51;3.07;;;1.73;;
62693;SDS011;48759;52.544;13.418;2022-09-09T12:52:23;4.53;;;1.73;;
62693;SDS011;48759;52.544;13.418;2022-09-09T12:54:56;4.00;;;1.60;;
62693;SDS011;48759;52.544;13.418;2022-09-09T12:57:24;4.73;;;2.20;;
62693;SDS011;48759;52.544;13.418;2022-09-09T13:00:04;5.20;;;2.10;;
62693;SDS011;48759;52.544;13.418;2022-09-09T13:02:33;3.33;;;1.57;;
62693;SDS011;48759;52.544;13.418;2022-09-09T13:05:05;2.50;;;1.50;;
62693;SDS011;48759;52.544;13.418;2022-09-09T13:07:39;3.77;;;1.50;;
62693;SDS011;48759;52.544;13.418;2022-09-09T13:10:07;4.00;;;1.63;;
62693;SDS011;48759;52.544;13.418;2022-09-09T13:12:37;3.30;;;1.80;;
62693;SDS011;48759;52.544;13.418;2022-09-09T13:15:04;5.53;;;1.40;;
62693;SDS011;48759;52.544;13.418;2022-09-09T13:17:42;2.83;;;1.70;;
62693;SDS011;48759;52.544;13.418;2022-09-09T13:20:15;8.37;;;2.00;;
62693;SDS011;48759;52.544;13.418;2022-09-09T13:22:43;6.10;;;2.10;;
62693;SDS011;48759;52.544;13.418;2022-09-09T13:25:18;2.47;;;1.53;;
62693;SDS011;48759;52.544;13.418;2022-09-09T13:27:54;3.17;;;1.50;;
62693;SDS011;48759;52.544;13.418;2022-09-09T13:30:23;3.40;;;1.83;;
62693;SDS011;48759;52.544;13.418;2022-09-09T13:35:48;3.03;;;1.80;;
62693;SDS011;48759;52.544;13.418;2022-09-09T13:38:16;8.27;;;2.40;;
62693;SDS011;48759;52.544;13.418;2022-09-09T13:40:52;3.37;;;1.97;;
62693;SDS011;48759;52.544;13.418;2022-09-09T13:43:23;4.20;;;2.07;;
62693;SDS011;48759;52.544;13.418;2022-09-09T13:45:55;5.33;;;2.23;;
62693;SDS011;48759;52.544;13.418;2022-09-09T13:48:22;6.97;;;1.97;;
62693;SDS011;48759;52.544;13.418;2022-09-09T13:50:54;3.30;;;2.00;;
62693;SDS011;48759;52.544;13.418;2022-09-09T13:53:21;6.80;;;2.07;;
62693;SDS011;48759;52.544;13.418;2022-09-09T13:55:48;5.13;;;2.27;;
62693;SDS011;48759;52.544;13.418;2022-09-09T13:58:16;5.03;;;1.90;;
62693;SDS011;48759;52.544;13.418;2022-09-09T14:00:44;8.90;;;2.63;;
62693;SDS011;48759;52.544;13.418;2022-09-09T14:03:11;2.83;;;1.93;;
62693;SDS011;48759;52.544;13.418;2022-09-09T14:05:38;3.80;;;1.83;;
62693;SDS011;48759;52.544;13.418;2022-09-09T14:08:05;4.23;;;2.00;;
62693;SDS011;48759;52.544;13.418;2022-09-09T14:10:33;3.73;;;2.23;;
62693;SDS011;48759;52.544;13.418;2022-09-09T14:13:00;4.30;;;2.10;;
62693;SDS011;48759;52.544;13.418;2022-09-09T14:15:28;7.43;;;1.93;;
62693;SDS011;48759;52.544;13.418;2022-09-09T14:17:56;4.23;;;1.80;;
62693;SDS011;48759;52.544;13.418;2022-09-09T14:20:23;4.33;;;2.10;;
62693;SDS011;48759;52.544;13.418;2022-09-09T14:22:50;2.60;;;1.80;;
62693;SDS011;48759;52.544;13.418;2022-09-09T14:25:18;3.83;;;2.10;;
62693;SDS011;48759;52.544;13.418;2022-09-09T14:27:44;6.20;;;1.80;;
62693;SDS011;48759;52.544;13.418;2022-09-09T14:30:11;7.03;;;1.90;;
62693;SDS011;48759;52.544;13.418;2022-09-09T14:32:39;4.77;;;1.80;;
62693;SDS011;48759;52.544;13.418;2022-09-09T14:35:06;4.90;;;2.57;;
62693;SDS011;48759;52.544;13.418;2022-09-09T14:37:33;5.33;;;2.00;;
62693;SDS011;48759;52.544;13.418;2022-09-09T14:40:00;5.50;;;2.97;;
62693;SDS011;48759;52.544;13.418;2022-09-09T14:42:26;8.50;;;2.07;;
62693;SDS011;48759;52.544;13.418;2022-09-09T14:44:55;4.90;;;2.00;;
62693;SDS011;48759;52.544;13.418;2022-09-09T14:47:21;3.30;;;1.90;;
62693;SDS011;48759;52.544;13.418;2022-09-09T14:49:49;3.97;;;2.57;;